KSJC/SJC METAR and TAF weather

Enter ICAO airport designator
Station Type Date Time Source
KSJC METAR 2021/09/20 04:53 UTC NOAA

KSJC 200453Z 35005KT 10SM FEW080 17/12 A3004 RMK AO2 SLP172 T01720122 $


Station Type Date Time Source
KSJC Decoded METAR 2021/09/20 04:53 UTC NOAA

SAN JOSE INTERNATIONAL AIRPORT, CA, United States (KSJC) 37-22N 121-55W 25M
Sep 20, 2021 - 12:53 AM EDT / 2021.09.20 0453 UTC
Wind: from the N (350 degrees) at 6 MPH (5 KT):0
Visibility: 10 mile(s):0
Sky conditions: mostly clear
Temperature: 63.0 F (17.2 C)
Dew Point: 54.0 F (12.2 C)
Relative Humidity: 72%
Pressure (altimeter): 30.04 in. Hg (1017 hPa)
ob: KSJC 200453Z 35005KT 10SM FEW080 17/12 A3004 RMK AO2 SLP172 T01720122
cycle: 5

Station Type Date Time Source
KSJC TAF 2021/09/20 06:30 UTC NOAA

TAF KSJC 200530Z 2006/2106 32007KT P6SM SKC
FM200700 VRB04KT P6SM SKC
FM202100 31012KT P6SM SKC
FM210300 32007KT P6SM FEW200

Example: see airport list